sensor_id;sensor_type;location;lat;lon;timestamp;pressure;altitude;pressure_sealevel;temperature;humidity
3796;BME280;1913;50.660;7.834;2022-08-25T00:01:23;97480.19;;;20.51;88.71
3796;BME280;1913;50.660;7.834;2022-08-25T00:03:49;97478.38;;;20.56;88.76
3796;BME280;1913;50.660;7.834;2022-08-25T00:06:14;97476.50;;;20.57;89.46
3796;BME280;1913;50.660;7.834;2022-08-25T00:08:40;97473.03;;;20.62;88.96
3796;BME280;1913;50.660;7.834;2022-08-25T00:11:09;97480.47;;;20.54;89.64
3796;BME280;1913;50.660;7.834;2022-08-25T00:13:38;97476.22;;;20.59;89.79
3796;BME280;1913;50.660;7.834;2022-08-25T00:16:05;97479.41;;;20.55;90.12
3796;BME280;1913;50.660;7.834;2022-08-25T00:18:30;97473.53;;;20.53;90.88
3796;BME280;1913;50.660;7.834;2022-08-25T00:20:56;97480.66;;;20.48;91.42
3796;BME280;1913;50.660;7.834;2022-08-25T00:23:21;97470.50;;;20.45;92.44
3796;BME280;1913;50.660;7.834;2022-08-25T00:25:47;97467.03;;;20.39;93.78
3796;BME280;1913;50.660;7.834;2022-08-25T00:28:13;97470.44;;;20.34;94.73
3796;BME280;1913;50.660;7.834;2022-08-25T00:30:39;97476.06;;;20.33;95.15
3796;BME280;1913;50.660;7.834;2022-08-25T00:33:04;97470.72;;;20.33;96.03
3796;BME280;1913;50.660;7.834;2022-08-25T00:35:30;97472.00;;;20.25;97.07
3796;BME280;1913;50.660;7.834;2022-08-25T00:37:55;97466.16;;;20.28;97.41
3796;BME280;1913;50.660;7.834;2022-08-25T00:40:23;97468.34;;;20.37;97.30
3796;BME280;1913;50.660;7.834;2022-08-25T00:42:48;97463.78;;;20.37;97.74
3796;BME280;1913;50.660;7.834;2022-08-25T00:45:14;97464.09;;;20.41;97.55
3796;BME280;1913;50.660;7.834;2022-08-25T00:47:39;97474.75;;;20.41;97.51
3796;BME280;1913;50.660;7.834;2022-08-25T00:50:07;97471.31;;;20.45;97.43
3796;BME280;1913;50.660;7.834;2022-08-25T00:52:40;97471.38;;;20.50;97.52
3796;BME280;1913;50.660;7.834;2022-08-25T00:55:12;97465.44;;;20.48;98.11
3796;BME280;1913;50.660;7.834;2022-08-25T00:57:43;97476.13;;;20.48;98.29
3796;BME280;1913;50.660;7.834;2022-08-25T01:00:27;97474.53;;;20.47;98.41
3796;BME280;1913;50.660;7.834;2022-08-25T01:02:53;97473.47;;;20.48;98.21
3796;BME280;1913;50.660;7.834;2022-08-25T01:05:20;97464.63;;;20.43;98.87
3796;BME280;1913;50.660;7.834;2022-08-25T01:07:46;97464.34;;;20.39;99.81
3796;BME280;1913;50.660;7.834;2022-08-25T01:10:13;97464.03;;;20.30;100.00
3796;BME280;1913;50.660;7.834;2022-08-25T01:12:39;97464.28;;;20.29;100.00
3796;BME280;1913;50.660;7.834;2022-08-25T01:15:06;97461.13;;;20.32;100.00
3796;BME280;1913;50.660;7.834;2022-08-25T01:17:58;97461.13;;;20.32;100.00
3796;BME280;1913;50.660;7.834;2022-08-25T01:20:26;97467.25;;;20.32;100.00
3796;BME280;1913;50.660;7.834;2022-08-25T01:22:53;97471.50;;;20.28;100.00
3796;BME280;1913;50.660;7.834;2022-08-25T01:25:34;97469.88;;;20.27;100.00
3796;BME280;1913;50.660;7.834;2022-08-25T01:28:04;97465.09;;;20.29;100.00
3796;BME280;1913;50.660;7.834;2022-08-25T01:30:29;97470.44;;;20.29;100.00
3796;BME280;1913;50.660;7.834;2022-08-25T01:32:55;97459.78;;;20.34;100.00
3796;BME280;1913;50.660;7.834;2022-08-25T01:35:20;97458.44;;;20.32;100.00
3796;BME280;1913;50.660;7.834;2022-08-25T01:37:46;97456.59;;;20.38;100.00
3796;BME280;1913;50.660;7.834;2022-08-25T01:40:12;97467.50;;;20.31;100.00
3796;BME280;1913;50.660;7.834;2022-08-25T01:43:10;97458.94;;;20.29;100.00
3796;BME280;1913;50.660;7.834;2022-08-25T01:45:39;97458.91;;;20.24;100.00
3796;BME280;1913;50.660;7.834;2022-08-25T01:48:06;97464.50;;;20.22;100.00
3796;BME280;1913;50.660;7.834;2022-08-25T01:50:33;97463.94;;;20.20;100.00
3796;BME280;1913;50.660;7.834;2022-08-25T01:55:24;97463.19;;;20.25;100.00
3796;BME280;1913;50.660;7.834;2022-08-25T01:57:50;97458.91;;;20.24;100.00
3796;BME280;1913;50.660;7.834;2022-08-25T02:00:17;97463.19;;;20.25;100.00
3796;BME280;1913;50.660;7.834;2022-08-25T02:02:42;97462.13;;;20.21;100.00
3796;BME280;1913;50.660;7.834;2022-08-25T02:05:10;97470.34;;;20.19;100.00
3796;BME280;1913;50.660;7.834;2022-08-25T02:07:36;97466.03;;;20.13;100.00
3796;BME280;1913;50.660;7.834;2022-08-25T02:10:03;97467.41;;;20.16;100.00
3796;BME280;1913;50.660;7.834;2022-08-25T02:12:30;97465.53;;;20.16;100.00
3796;BME280;1913;50.660;7.834;2022-08-25T02:14:57;97458.31;;;20.17;100.00
3796;BME280;1913;50.660;7.834;2022-08-25T02:17:23;97464.41;;;20.07;100.00
3796;BME280;1913;50.660;7.834;2022-08-25T02:19:48;97461.78;;;20.12;100.00
3796;BME280;1913;50.660;7.834;2022-08-25T02:22:14;97466.59;;;20.15;100.00
3796;BME280;1913;50.660;7.834;2022-08-25T02:24:40;97471.66;;;20.17;100.00
3796;BME280;1913;50.660;7.834;2022-08-25T02:27:05;97467.41;;;20.16;100.00
3796;BME280;1913;50.660;7.834;2022-08-25T02:29:31;97478.88;;;20.16;100.00
3796;BME280;1913;50.660;7.834;2022-08-25T02:31:56;97468.19;;;20.11;100.00
3796;BME280;1913;50.660;7.834;2022-08-25T02:34:23;97480.63;;;20.00;100.00
3796;BME280;1913;50.660;7.834;2022-08-25T02:36:48;97473.66;;;19.94;100.00
3796;BME280;1913;50.660;7.834;2022-08-25T02:39:15;97477.84;;;19.85;100.00
3796;BME280;1913;50.660;7.834;2022-08-25T02:41:41;97477.47;;;19.71;100.00
3796;BME280;1913;50.660;7.834;2022-08-25T02:44:07;97468.63;;;19.66;100.00
3796;BME280;1913;50.660;7.834;2022-08-25T02:46:34;97478.41;;;19.60;100.00
3796;BME280;1913;50.660;7.834;2022-08-25T02:48:59;97473.00;;;19.50;100.00
3796;BME280;1913;50.660;7.834;2022-08-25T02:51:26;97474.31;;;19.47;100.00
3796;BME280;1913;50.660;7.834;2022-08-25T02:53:54;97468.88;;;19.37;100.00
3796;BME280;1913;50.660;7.834;2022-08-25T02:56:22;97479.53;;;19.37;100.00
3796;BME280;1913;50.660;7.834;2022-08-25T02:58:48;97467.75;;;19.33;100.00
3796;BME280;1913;50.660;7.834;2022-08-25T03:01:14;97468.72;;;19.22;100.00
3796;BME280;1913;50.660;7.834;2022-08-25T03:03:41;97462.59;;;19.21;100.00
3796;BME280;1913;50.660;7.834;2022-08-25T03:06:10;97452.25;;;19.25;100.00
3796;BME280;1913;50.660;7.834;2022-08-25T03:08:37;97457.25;;;19.21;100.00
3796;BME280;1913;50.660;7.834;2022-08-25T03:11:04;97449.50;;;19.20;100.00
3796;BME280;1913;50.660;7.834;2022-08-25T03:13:30;97443.69;;;19.23;100.00
3796;BME280;1913;50.660;7.834;2022-08-25T03:16:00;97442.91;;;19.27;100.00
3796;BME280;1913;50.660;7.834;2022-08-25T03:18:26;97443.78;;;19.33;100.00
3796;BME280;1913;50.660;7.834;2022-08-25T03:20:52;97442.78;;;19.39;100.00
3796;BME280;1913;50.660;7.834;2022-08-25T03:23:18;97440.13;;;19.39;100.00
3796;BME280;1913;50.660;7.834;2022-08-25T03:25:43;97437.44;;;19.39;100.00
3796;BME280;1913;50.660;7.834;2022-08-25T03:28:29;97437.16;;;19.35;100.00
3796;BME280;1913;50.660;7.834;2022-08-25T03:30:58;97441.16;;;19.38;100.00
3796;BME280;1913;50.660;7.834;2022-08-25T03:33:25;97430.50;;;19.38;100.00
3796;BME280;1913;50.660;7.834;2022-08-25T03:35:50;97431.59;;;19.42;100.00
3796;BME280;1913;50.660;7.834;2022-08-25T03:38:16;97428.91;;;19.37;100.00
3796;BME280;1913;50.660;7.834;2022-08-25T03:40:41;97430.50;;;19.38;100.00
3796;BME280;1913;50.660;7.834;2022-08-25T03:43:07;97428.94;;;19.42;100.00
3796;BME280;1913;50.660;7.834;2022-08-25T03:45:33;97431.06;;;19.40;100.00
3796;BME280;1913;50.660;7.834;2022-08-25T03:47:58;97425.16;;;19.38;100.00
3796;BME280;1913;50.660;7.834;2022-08-25T03:50:24;97434.72;;;19.34;100.00
3796;BME280;1913;50.660;7.834;2022-08-25T03:52:53;97432.31;;;19.32;100.00
3796;BME280;1913;50.660;7.834;2022-08-25T03:55:21;97434.78;;;19.39;100.00
3796;BME280;1913;50.660;7.834;2022-08-25T03:57:47;97431.28;;;19.38;100.00
3796;BME280;1913;50.660;7.834;2022-08-25T04:00:13;97427.59;;;19.40;100.00
3796;BME280;1913;50.660;7.834;2022-08-25T04:02:39;97432.66;;;19.41;100.00
3796;BME280;1913;50.660;7.834;2022-08-25T04:05:06;97424.16;;;19.44;100.00
3796;BME280;1913;50.660;7.834;2022-08-25T04:07:31;97422.56;;;19.43;100.00
3796;BME280;1913;50.660;7.834;2022-08-25T04:09:57;97419.03;;;19.37;100.00
3796;BME280;1913;50.660;7.834;2022-08-25T04:12:22;97411.81;;;19.33;100.00
3796;BME280;1913;50.660;7.834;2022-08-25T04:14:48;97411.81;;;19.33;100.00
3796;BME280;1913;50.660;7.834;2022-08-25T04:17:14;97415.25;;;19.28;100.00
3796;BME280;1913;50.660;7.834;2022-08-25T04:19:40;97419.22;;;19.26;100.00
3796;BME280;1913;50.660;7.834;2022-08-25T04:22:05;97414.66;;;19.21;100.00
3796;BME280;1913;50.660;7.834;2022-08-25T04:24:31;97418.84;;;19.17;100.00
3796;BME280;1913;50.660;7.834;2022-08-25T04:26:56;97423.44;;;19.22;100.00
3796;BME280;1913;50.660;7.834;2022-08-25T04:29:23;97412.72;;;19.17;100.00
3796;BME280;1913;50.660;7.834;2022-08-25T04:31:49;97412.19;;;19.14;100.00
3796;BME280;1913;50.660;7.834;2022-08-25T04:34:20;97415.56;;;19.10;100.00
3796;BME280;1913;50.660;7.834;2022-08-25T04:36:46;97415.28;;;19.06;100.00
3796;BME280;1913;50.660;7.834;2022-08-25T04:39:12;97420.84;;;19.05;100.00
3796;BME280;1913;50.660;7.834;2022-08-25T04:41:37;97420.91;;;19.10;100.00
3796;BME280;1913;50.660;7.834;2022-08-25T04:44:03;97420.41;;;19.13;100.00
3796;BME280;1913;50.660;7.834;2022-08-25T04:46:32;97417.00;;;19.18;100.00
3796;BME280;1913;50.660;7.834;2022-08-25T04:48:59;97418.53;;;19.13;100.00
3796;BME280;1913;50.660;7.834;2022-08-25T04:51:31;97417.00;;;19.18;100.00
3796;BME280;1913;50.660;7.834;2022-08-25T04:54:01;97419.09;;;19.16;100.00
3796;BME280;1913;50.660;7.834;2022-08-25T04:56:27;97413.81;;;19.21;100.00
3796;BME280;1913;50.660;7.834;2022-08-25T04:58:54;97413.28;;;19.19;100.00
3796;BME280;1913;50.660;7.834;2022-08-25T05:01:22;97412.28;;;19.25;100.00
3796;BME280;1913;50.660;7.834;2022-08-25T05:03:54;97412.56;;;19.28;100.00
3796;BME280;1913;50.660;7.834;2022-08-25T05:06:20;97412.91;;;19.37;100.00
3796;BME280;1913;50.660;7.834;2022-08-25T05:08:46;97419.44;;;19.51;100.00
3796;BME280;1913;50.660;7.834;2022-08-25T05:11:13;97424.59;;;19.63;100.00
3796;BME280;1913;50.660;7.834;2022-08-25T05:13:40;97416.41;;;19.70;100.00
3796;BME280;1913;50.660;7.834;2022-08-25T05:16:05;97416.34;;;19.97;100.00
3796;BME280;1913;50.660;7.834;2022-08-25T05:18:33;97409.91;;;20.35;100.00
3796;BME280;1913;50.660;7.834;2022-08-25T05:21:05;97417.75;;;20.62;100.00
3796;BME280;1913;50.660;7.834;2022-08-25T05:23:31;97409.56;;;20.79;100.00
3796;BME280;1913;50.660;7.834;2022-08-25T05:26:02;97405.91;;;21.11;100.00
3796;BME280;1913;50.660;7.834;2022-08-25T05:28:28;97406.97;;;21.30;100.00
3796;BME280;1913;50.660;7.834;2022-08-25T05:30:57;97419.59;;;21.50;100.00
3796;BME280;1913;50.660;7.834;2022-08-25T05:33:23;97419.31;;;21.72;100.00
3796;BME280;1913;50.660;7.834;2022-08-25T05:35:48;97417.19;;;21.69;100.00
3796;BME280;1913;50.660;7.834;2022-08-25T05:38:14;97421.47;;;21.75;100.00
3796;BME280;1913;50.660;7.834;2022-08-25T05:40:39;97417.44;;;21.93;100.00
3796;BME280;1913;50.660;7.834;2022-08-25T05:43:04;97416.09;;;22.00;100.00
3796;BME280;1913;50.660;7.834;2022-08-25T05:45:30;97413.13;;;22.07;100.00
3796;BME280;1913;50.660;7.834;2022-08-25T05:47:56;97401.34;;;22.13;100.00
3796;BME280;1913;50.660;7.834;2022-08-25T05:50:22;97397.06;;;22.22;100.00
3796;BME280;1913;50.660;7.834;2022-08-25T05:52:47;97404.03;;;22.13;100.00
3796;BME280;1913;50.660;7.834;2022-08-25T05:55:12;97402.41;;;22.38;100.00
3796;BME280;1913;50.660;7.834;2022-08-25T05:57:39;97399.47;;;22.29;100.00
3796;BME280;1913;50.660;7.834;2022-08-25T06:00:06;97399.38;;;22.55;100.00
3796;BME280;1913;50.660;7.834;2022-08-25T06:02:32;97403.03;;;22.74;100.00
3796;BME280;1913;50.660;7.834;2022-08-25T06:05:17;97401.91;;;22.80;100.00
3796;BME280;1913;50.660;7.834;2022-08-25T06:07:44;97402.50;;;22.77;100.00
3796;BME280;1913;50.660;7.834;2022-08-25T06:10:11;97397.81;;;23.03;100.00
3796;BME280;1913;50.660;7.834;2022-08-25T06:12:39;97398.50;;;23.24;100.00
3796;BME280;1913;50.660;7.834;2022-08-25T06:15:05;97400.38;;;23.24;100.00
3796;BME280;1913;50.660;7.834;2022-08-25T06:17:32;97394.94;;;23.34;100.00
3796;BME280;1913;50.660;7.834;2022-08-25T06:19:59;97399.47;;;23.38;100.00
3796;BME280;1913;50.660;7.834;2022-08-25T06:22:25;97399.00;;;23.26;100.00
3796;BME280;1913;50.660;7.834;2022-08-25T06:24:50;97395.75;;;23.29;100.00
3796;BME280;1913;50.660;7.834;2022-08-25T06:27:16;97399.81;;;23.27;100.00
3796;BME280;1913;50.660;7.834;2022-08-25T06:29:42;97401.91;;;23.35;100.00
3796;BME280;1913;50.660;7.834;2022-08-25T06:32:07;97397.66;;;23.29;100.00
3796;BME280;1913;50.660;7.834;2022-08-25T06:34:33;97398.84;;;23.52;100.00
3796;BME280;1913;50.660;7.834;2022-08-25T06:36:58;97400.84;;;23.70;100.00
3796;BME280;1913;50.660;7.834;2022-08-25T06:39:24;97411.03;;;23.73;100.00
3796;BME280;1913;50.660;7.834;2022-08-25T06:41:51;97416.16;;;23.70;100.00
3796;BME280;1913;50.660;7.834;2022-08-25T06:44:17;97404.47;;;23.84;100.00
3796;BME280;1913;50.660;7.834;2022-08-25T06:46:42;97405.53;;;23.83;100.00
3796;BME280;1913;50.660;7.834;2022-08-25T06:49:07;97403.63;;;23.89;100.00
3796;BME280;1913;50.660;7.834;2022-08-25T06:51:33;97415.81;;;23.76;100.00
3796;BME280;1913;50.660;7.834;2022-08-25T06:54:00;97412.81;;;24.12;100.00
3796;BME280;1913;50.660;7.834;2022-08-25T06:56:25;97405.69;;;24.50;100.00
3796;BME280;1913;50.660;7.834;2022-08-25T06:58:51;97410.72;;;24.57;100.00
3796;BME280;1913;50.660;7.834;2022-08-25T07:01:23;97409.44;;;24.73;100.00
3796;BME280;1913;50.660;7.834;2022-08-25T07:03:54;97408.13;;;24.71;100.00
3796;BME280;1913;50.660;7.834;2022-08-25T07:06:22;97411.38;;;25.11;99.19
3796;BME280;1913;50.660;7.834;2022-08-25T07:08:48;97408.25;;;25.41;96.84
3796;BME280;1913;50.660;7.834;2022-08-25T07:11:14;97403.44;;;25.38;96.23
3796;BME280;1913;50.660;7.834;2022-08-25T07:13:40;97402.81;;;25.60;94.53
3796;BME280;1913;50.660;7.834;2022-08-25T07:16:06;97409.34;;;25.40;94.61
3796;BME280;1913;50.660;7.834;2022-08-25T07:18:32;97406.94;;;25.39;95.41
3796;BME280;1913;50.660;7.834;2022-08-25T07:20:58;97407.16;;;25.42;94.78
3796;BME280;1913;50.660;7.834;2022-08-25T07:23:24;97410.41;;;25.58;93.46
3796;BME280;1913;50.660;7.834;2022-08-25T07:25:51;97403.06;;;25.77;93.38
3796;BME280;1913;50.660;7.834;2022-08-25T07:28:17;97409.13;;;25.88;91.61
3796;BME280;1913;50.660;7.834;2022-08-25T07:30:43;97411.63;;;25.98;90.08
3796;BME280;1913;50.660;7.834;2022-08-25T07:33:08;97411.44;;;25.95;90.91
3796;BME280;1913;50.660;7.834;2022-08-25T07:35:34;97408.09;;;26.44;87.68
3796;BME280;1913;50.660;7.834;2022-08-25T07:38:01;97411.41;;;26.69;85.37
3796;BME280;1913;50.660;7.834;2022-08-25T07:40:32;97406.84;;;26.92;82.14
3796;BME280;1913;50.660;7.834;2022-08-25T07:43:00;97408.50;;;26.79;82.01
3796;BME280;1913;50.660;7.834;2022-08-25T07:45:29;97404.28;;;26.87;80.81
3796;BME280;1913;50.660;7.834;2022-08-25T07:48:01;97414.72;;;27.02;79.97
3796;BME280;1913;50.660;7.834;2022-08-25T07:50:28;97410.63;;;27.18;77.88
3796;BME280;1913;50.660;7.834;2022-08-25T07:52:55;97411.31;;;27.47;76.07
3796;BME280;1913;50.660;7.834;2022-08-25T07:55:22;97418.03;;;27.13;77.72
3796;BME280;1913;50.660;7.834;2022-08-25T07:57:48;97407.94;;;27.41;76.23
3796;BME280;1913;50.660;7.834;2022-08-25T08:00:15;97406.78;;;27.78;73.76
3796;BME280;1913;50.660;7.834;2022-08-25T08:02:42;97403.63;;;28.07;71.82
3796;BME280;1913;50.660;7.834;2022-08-25T08:05:08;97414.22;;;28.35;66.68
3796;BME280;1913;50.660;7.834;2022-08-25T08:07:34;97404.50;;;28.34;65.67
3796;BME280;1913;50.660;7.834;2022-08-25T08:10:00;97404.63;;;28.60;64.47
3796;BME280;1913;50.660;7.834;2022-08-25T08:12:26;97404.25;;;29.01;61.20
3796;BME280;1913;50.660;7.834;2022-08-25T08:14:52;97405.84;;;29.54;59.50
3796;BME280;1913;50.660;7.834;2022-08-25T08:17:18;97406.81;;;29.58;54.50
3796;BME280;1913;50.660;7.834;2022-08-25T08:19:44;97400.81;;;30.09;52.22
3796;BME280;1913;50.660;7.834;2022-08-25T08:22:10;97404.75;;;29.64;52.27
3796;BME280;1913;50.660;7.834;2022-08-25T08:24:38;97402.50;;;29.75;52.81
3796;BME280;1913;50.660;7.834;2022-08-25T08:27:05;97405.78;;;29.98;51.46
3796;BME280;1913;50.660;7.834;2022-08-25T08:29:32;97408.97;;;30.00;50.29
3796;BME280;1913;50.660;7.834;2022-08-25T08:31:58;97408.69;;;29.84;50.06
3796;BME280;1913;50.660;7.834;2022-08-25T08:34:24;97407.44;;;29.81;49.18
3796;BME280;1913;50.660;7.834;2022-08-25T08:36:49;97409.69;;;29.71;50.39
3796;BME280;1913;50.660;7.834;2022-08-25T08:39:15;97410.75;;;29.96;49.21
3796;BME280;1913;50.660;7.834;2022-08-25T08:53:28;97388.94;;;30.30;46.65
3796;BME280;1913;50.660;7.834;2022-08-25T08:55:57;97388.72;;;30.74;45.43
3796;BME280;1913;50.660;7.834;2022-08-25T08:58:39;97377.50;;;31.26;41.18
3796;BME280;1913;50.660;7.834;2022-08-25T09:01:06;97379.69;;;31.87;41.25
3796;BME280;1913;50.660;7.834;2022-08-25T09:03:39;97374.75;;;31.68;41.04
3796;BME280;1913;50.660;7.834;2022-08-25T09:06:11;97375.34;;;31.74;40.81
3796;BME280;1913;50.660;7.834;2022-08-25T09:08:39;97370.31;;;32.09;39.67
3796;BME280;1913;50.660;7.834;2022-08-25T09:25:12;97370.78;;;32.11;39.18
3796;BME280;1913;50.660;7.834;2022-08-25T09:30:57;97363.91;;;31.80;39.34
3796;BME280;1913;50.660;7.834;2022-08-25T09:33:21;97357.16;;;31.86;38.54
3796;BME280;1913;50.660;7.834;2022-08-25T09:35:48;97356.88;;;31.79;38.57
3796;BME280;1913;50.660;7.834;2022-08-25T09:38:15;97339.63;;;32.08;37.57
3796;BME280;1913;50.660;7.834;2022-08-25T09:40:53;97334.13;;;31.84;37.45
3796;BME280;1913;50.660;7.834;2022-08-25T09:45:48;97325.94;;;32.94;34.64
3796;BME280;1913;50.660;7.834;2022-08-25T09:50:59;97318.31;;;32.72;35.69
3796;BME280;1913;50.660;7.834;2022-08-25T09:53:26;97305.31;;;32.53;35.10
3796;BME280;1913;50.660;7.834;2022-08-25T09:55:57;97319.34;;;32.55;35.59
3796;BME280;1913;50.660;7.834;2022-08-25T09:58:24;97311.97;;;32.67;34.66
3796;BME280;1913;50.660;7.834;2022-08-25T10:01:18;97302.13;;;33.31;33.48
3796;BME280;1913;50.660;7.834;2022-08-25T10:03:59;97310.72;;;33.61;32.43
3796;BME280;1913;50.660;7.834;2022-08-25T10:06:46;97318.56;;;33.95;31.68
3796;BME280;1913;50.660;7.834;2022-08-25T10:09:33;97302.28;;;33.82;30.79
3796;BME280;1913;50.660;7.834;2022-08-25T10:12:00;97300.34;;;33.83;31.86
3796;BME280;1913;50.660;7.834;2022-08-25T10:14:35;97301.59;;;33.70;31.16
3796;BME280;1913;50.660;7.834;2022-08-25T10:22:37;97297.16;;;33.65;30.63
3796;BME280;1913;50.660;7.834;2022-08-25T10:25:04;97290.69;;;33.70;29.75
3796;BME280;1913;50.660;7.834;2022-08-25T10:28:44;97293.28;;;33.50;29.92
3796;BME280;1913;50.660;7.834;2022-08-25T10:39:00;97286.22;;;34.60;28.17
3796;BME280;1913;50.660;7.834;2022-08-25T10:50:45;97276.88;;;34.61;26.87
3796;BME280;1913;50.660;7.834;2022-08-25T10:53:44;97284.00;;;34.66;26.51
3796;BME280;1913;50.660;7.834;2022-08-25T10:56:17;97270.94;;;35.79;25.52
3796;BME280;1913;50.660;7.834;2022-08-25T11:07:09;97264.75;;;33.92;28.95
3796;BME280;1913;50.660;7.834;2022-08-25T11:09:39;97264.97;;;34.34;28.61
3796;BME280;1913;50.660;7.834;2022-08-25T11:14:52;97265.00;;;34.53;28.24
3796;BME280;1913;50.660;7.834;2022-08-25T11:17:33;97257.59;;;35.51;27.09
3796;BME280;1913;50.660;7.834;2022-08-25T11:20:11;97249.00;;;35.30;26.88
3796;BME280;1913;50.660;7.834;2022-08-25T11:22:44;97245.53;;;35.79;26.67
3796;BME280;1913;50.660;7.834;2022-08-25T11:25:17;97250.50;;;35.50;26.37
3796;BME280;1913;50.660;7.834;2022-08-25T11:30:31;97256.69;;;34.85;27.34
3796;BME280;1913;50.660;7.834;2022-08-25T11:32:56;97253.19;;;35.04;26.72
3796;BME280;1913;50.660;7.834;2022-08-25T11:35:37;97255.78;;;34.42;27.73
3796;BME280;1913;50.660;7.834;2022-08-25T11:38:26;97255.78;;;34.42;28.14
3796;BME280;1913;50.660;7.834;2022-08-25T11:46:06;97246.88;;;35.88;25.57
3796;BME280;1913;50.660;7.834;2022-08-25T11:51:45;97250.69;;;35.38;26.51
3796;BME280;1913;50.660;7.834;2022-08-25T11:54:42;97242.78;;;34.90;27.63
3796;BME280;1913;50.660;7.834;2022-08-25T11:57:17;97238.69;;;34.81;27.15
3796;BME280;1913;50.660;7.834;2022-08-25T12:13:42;97235.19;;;33.94;28.54
3796;BME280;1913;50.660;7.834;2022-08-25T12:29:54;97217.94;;;36.40;26.41
3796;BME280;1913;50.660;7.834;2022-08-25T12:35:29;97214.94;;;36.19;26.20
3796;BME280;1913;50.660;7.834;2022-08-25T12:37:59;97216.31;;;36.36;25.44
3796;BME280;1913;50.660;7.834;2022-08-25T12:45:49;97206.16;;;36.36;24.75
3796;BME280;1913;50.660;7.834;2022-08-25T12:53:41;97206.31;;;38.03;23.51
3796;BME280;1913;50.660;7.834;2022-08-25T12:56:21;97201.47;;;36.67;24.39
3796;BME280;1913;50.660;7.834;2022-08-25T12:58:55;97207.94;;;36.52;24.39
3796;BME280;1913;50.660;7.834;2022-08-25T13:09:20;97203.03;;;35.12;26.03
3796;BME280;1913;50.660;7.834;2022-08-25T13:12:06;97205.19;;;35.03;26.22
3796;BME280;1913;50.660;7.834;2022-08-25T13:14:40;97196.31;;;34.87;25.96
3796;BME280;1913;50.660;7.834;2022-08-25T13:17:07;97196.22;;;34.64;27.23
3796;BME280;1913;50.660;7.834;2022-08-25T13:19:33;97182.66;;;34.67;27.25
3796;BME280;1913;50.660;7.834;2022-08-25T13:22:00;97174.97;;;35.38;26.40
3796;BME280;1913;50.660;7.834;2022-08-25T13:24:31;97181.97;;;35.13;27.18
3796;BME280;1913;50.660;7.834;2022-08-25T13:27:05;97182.22;;;36.00;25.43
3796;BME280;1913;50.660;7.834;2022-08-25T13:29:35;97185.78;;;36.64;25.10
3796;BME280;1913;50.660;7.834;2022-08-25T13:32:12;97174.59;;;36.12;25.23
3796;BME280;1913;50.660;7.834;2022-08-25T13:34:40;97173.66;;;36.31;25.45
3796;BME280;1913;50.660;7.834;2022-08-25T13:37:13;97169.59;;;36.48;25.04
3796;BME280;1913;50.660;7.834;2022-08-25T13:40:11;97155.13;;;35.91;26.46
3796;BME280;1913;50.660;7.834;2022-08-25T13:42:39;97153.97;;;35.92;26.11
3796;BME280;1913;50.660;7.834;2022-08-25T13:45:06;97152.41;;;35.41;26.87
3796;BME280;1913;50.660;7.834;2022-08-25T13:47:35;97166.06;;;35.41;26.56
3796;BME280;1913;50.660;7.834;2022-08-25T13:55:48;97153.81;;;34.12;27.64
3796;BME280;1913;50.660;7.834;2022-08-25T13:58:17;97144.78;;;33.56;28.34
3796;BME280;1913;50.660;7.834;2022-08-25T14:03:30;97139.13;;;33.81;28.54
3796;BME280;1913;50.660;7.834;2022-08-25T14:08:42;97140.22;;;33.76;28.59
3796;BME280;1913;50.660;7.834;2022-08-25T14:11:12;97142.00;;;34.43;27.88
3796;BME280;1913;50.660;7.834;2022-08-25T14:13:39;97143.59;;;34.24;27.98
3796;BME280;1913;50.660;7.834;2022-08-25T14:18:32;97140.22;;;33.29;29.54
3796;BME280;1913;50.660;7.834;2022-08-25T14:21:09;97140.41;;;32.76;30.69
3796;BME280;1913;50.660;7.834;2022-08-25T14:23:36;97132.88;;;32.41;30.77
3796;BME280;1913;50.660;7.834;2022-08-25T14:26:02;97142.34;;;32.48;30.97
3796;BME280;1913;50.660;7.834;2022-08-25T14:28:29;97140.34;;;32.32;31.05
3796;BME280;1913;50.660;7.834;2022-08-25T14:30:59;97134.56;;;32.06;31.55
3796;BME280;1913;50.660;7.834;2022-08-25T14:33:32;97127.31;;;31.85;31.96
3796;BME280;1913;50.660;7.834;2022-08-25T14:35:59;97127.59;;;31.31;32.61
3796;BME280;1913;50.660;7.834;2022-08-25T14:38:27;97131.31;;;31.39;32.48
3796;BME280;1913;50.660;7.834;2022-08-25T14:40:53;97129.28;;;30.78;33.83
3796;BME280;1913;50.660;7.834;2022-08-25T14:43:18;97121.84;;;30.54;34.11
3796;BME280;1913;50.660;7.834;2022-08-25T14:45:45;97121.16;;;30.57;34.41
3796;BME280;1913;50.660;7.834;2022-08-25T14:48:24;97117.88;;;30.30;34.50
3796;BME280;1913;50.660;7.834;2022-08-25T14:50:55;97119.91;;;30.54;34.53
3796;BME280;1913;50.660;7.834;2022-08-25T14:53:22;97121.31;;;30.73;34.21
3796;BME280;1913;50.660;7.834;2022-08-25T14:55:48;97107.31;;;31.29;33.31
3796;BME280;1913;50.660;7.834;2022-08-25T14:58:18;97108.91;;;31.54;32.93
3796;BME280;1913;50.660;7.834;2022-08-25T15:00:44;97125.75;;;31.47;32.73
3796;BME280;1913;50.660;7.834;2022-08-25T15:03:17;97110.34;;;31.76;32.19
3796;BME280;1913;50.660;7.834;2022-08-25T15:05:44;97106.75;;;32.12;32.09
3796;BME280;1913;50.660;7.834;2022-08-25T15:08:09;97111.13;;;32.41;31.34
3796;BME280;1913;50.660;7.834;2022-08-25T15:10:54;97107.16;;;31.99;31.81
3796;BME280;1913;50.660;7.834;2022-08-25T15:13:19;97112.31;;;31.63;32.10
3796;BME280;1913;50.660;7.834;2022-08-25T15:15:46;97108.31;;;31.24;32.97
3796;BME280;1913;50.660;7.834;2022-08-25T15:18:12;97100.03;;;30.96;33.01
3796;BME280;1913;50.660;7.834;2022-08-25T15:20:37;97099.22;;;30.83;33.30
3796;BME280;1913;50.660;7.834;2022-08-25T15:23:03;97093.75;;;30.71;33.31
3796;BME280;1913;50.660;7.834;2022-08-25T15:25:28;97092.28;;;30.73;32.97
3796;BME280;1913;50.660;7.834;2022-08-25T15:27:55;97092.22;;;30.94;32.98
3796;BME280;1913;50.660;7.834;2022-08-25T15:30:20;97088.41;;;31.20;32.22
3796;BME280;1913;50.660;7.834;2022-08-25T15:32:45;97093.97;;;31.36;31.98
3796;BME280;1913;50.660;7.834;2022-08-25T15:35:11;97079.72;;;31.14;32.01
3796;BME280;1913;50.660;7.834;2022-08-25T15:37:37;97091.03;;;31.41;32.27
3796;BME280;1913;50.660;7.834;2022-08-25T15:40:03;97085.06;;;31.35;31.38
3796;BME280;1913;50.660;7.834;2022-08-25T15:42:29;97085.81;;;31.60;32.08
3796;BME280;1913;50.660;7.834;2022-08-25T15:44:54;97092.50;;;31.51;31.63
3796;BME280;1913;50.660;7.834;2022-08-25T15:47:21;97091.34;;;31.52;31.70
3796;BME280;1913;50.660;7.834;2022-08-25T15:49:47;97086.94;;;31.22;31.49